Moclips, WA (98562)

11:36 AM PDT on June 22, 2018 (GMT -0700)
SeaBrook | | Change Station

Elev 121 ft 47.20 °N, 124.20 °W | Updated 15 seconds ago

Overcast
Overcast
69.4 °F
Feels Like 69.4 °F
N
0
Wind Variable Wind from South
Gusts 1.3 mph

Today
High -- | Low -- °F
--% Chance of Precip.
Yesterday
High -- | Low -- °F
Precip. -- in
Pressure 30.22 in
Visibility 10.0 miles
Clouds Scattered Clouds 1900 ft
Overcast 2600 ft
Dew Point 56 °F
Humidity 63%
Rainfall 0.00 in
Snow Depth Not available.
5:20 AM 9:16 PM
Waxing Gibbous, 74% visible
METAR KHQM 221753Z AUTO 25010KT 10SM SCT019 OVC026 16/12 A3021 RMK AO2 SLP234 T01610117 10161 20144 52005
Pressure 30.22 in
Visibility 10.0 miles
Clouds Scattered Clouds 1900 ft
Overcast 2600 ft
Dew Point 56 °F
Humidity 63%
Rainfall 0.00 in
Snow Depth Not available.
5:20 AM 9:16 PM
Waxing Gibbous, 74% visible
METAR KHQM 221753Z AUTO 25010KT 10SM SCT019 OVC026 16/12 A3021 RMK AO2 SLP234 T01610117 10161 20144 52005

Get Severe Weather Alerts

Thanks for signing up!

Be on the lookout for a verification email in your inbox.

You'll start receiving the daily forecast at 6 AM.

×

10-Day Weather Forecast

Almanac

Astronomy

Jun. 22, 2018 Rise Set
Actual Time
Civil Twilight
Nautical Twilight
Astronomical Twilight
Moon
Length of Visible Light
Length of Day
Tomorrow will be .
, % of the Moon is Illuminated

Today's Extremes

State Highs State Lows

Community

WunderPhotos

Category 6

Welcome to Category 6. This is the collective home for Weather Underground's featured writeups by Dr. Jeff Masters (right), Bob Henson (left), Chris Burt, and other regular contributors.

Nearby

Air Quality

  Air Quality AQ Index Pollutant
Not available.

Snow Depth

Station Depth Elevation

Earthquake Activity

City Distance Mag. Time & Date
Minimum magnitude displayed is 2.5.

Coastal Water Temperatures

Place Temperature

Stations

Nearby Weather Stations

Station Location Temp. Windchill Dew Point Humidity Wind Precip. Elev Updated Type
                   

Watches & Warnings

There are currently no watches in effect.